createdAt,value
2017-11-15T00:00:40.952Z,44.10
2017-11-15T00:01:40.946Z,38.30
2017-11-15T00:02:40.935Z,26.10
2017-11-15T00:03:40.931Z,23.20
2017-11-15T00:04:40.921Z,13.70
2017-11-15T00:05:40.915Z,17.10
2017-11-15T00:06:40.905Z,18.10
2017-11-15T00:07:40.899Z,31.20
2017-11-15T00:08:40.890Z,44.10
2017-11-15T00:09:40.884Z,45.40
2017-11-15T00:10:40.876Z,38.30
2017-11-15T00:11:40.869Z,32.60
2017-11-15T00:12:40.863Z,15.00
2017-11-15T00:13:40.854Z,55.30
2017-11-15T00:14:40.846Z,93.70
2017-11-15T00:15:40.845Z,109.60
2017-11-15T00:16:40.833Z,69.80
2017-11-15T00:17:40.823Z,40.50
2017-11-15T00:18:40.815Z,62.40
2017-11-15T00:19:40.808Z,127.90
2017-11-15T00:20:40.801Z,136.90
2017-11-15T00:21:40.793Z,113.80
2017-11-15T00:22:40.786Z,103.90
2017-11-15T00:23:40.778Z,41.70
2017-11-15T00:24:40.772Z,91.70
2017-11-15T00:25:40.764Z,139.50
2017-11-15T00:26:40.761Z,127.10
2017-11-15T00:27:40.749Z,135.70
2017-11-15T00:28:40.744Z,84.20
2017-11-15T00:29:41.225Z,95.60
2017-11-15T00:30:40.725Z,106.90
2017-11-15T00:31:40.718Z,144.30
2017-11-15T00:32:40.711Z,167.40
2017-11-15T00:33:40.702Z,112.80
2017-11-15T00:34:40.697Z,209.50
2017-11-15T00:35:40.688Z,212.80
2017-11-15T00:36:40.682Z,183.00
2017-11-15T00:37:40.674Z,130.80
2017-11-15T00:38:40.666Z,161.70
2017-11-15T00:39:40.660Z,133.00
2017-11-15T00:40:40.650Z,198.20
2017-11-15T00:41:40.643Z,85.70
2017-11-15T00:42:40.634Z,135.50
2017-11-15T00:43:40.636Z,157.60
2017-11-15T00:44:40.620Z,86.70
2017-11-15T00:45:40.616Z,106.50
2017-11-15T00:46:40.605Z,143.50
2017-11-15T00:47:40.600Z,49.00
2017-11-15T00:48:40.591Z,66.90
2017-11-15T00:49:40.586Z,79.50
2017-11-15T00:50:40.577Z,140.40
2017-11-15T00:51:40.569Z,149.20
2017-11-15T00:52:40.564Z,66.40
2017-11-15T00:53:40.556Z,63.90
2017-11-15T00:54:40.546Z,124.20
2017-11-15T00:55:40.538Z,104.50
2017-11-15T00:56:40.533Z,136.00
2017-11-15T00:57:40.575Z,107.60
2017-11-15T00:58:40.517Z,117.60
2017-11-15T00:59:40.519Z,127.90
2017-11-15T01:00:40.507Z,208.70
2017-11-15T01:01:40.498Z,192.20
2017-11-15T01:02:40.541Z,204.20
2017-11-15T01:03:40.481Z,250.30
2017-11-15T01:04:40.474Z,210.30
2017-11-15T01:05:40.466Z,202.20
2017-11-15T01:06:40.458Z,170.30
2017-11-15T01:07:40.453Z,156.70
2017-11-15T01:08:40.444Z,154.20
2017-11-15T01:09:40.438Z,203.30
2017-11-15T01:10:40.430Z,216.70
2017-11-15T01:11:40.422Z,209.00
2017-11-15T01:12:40.414Z,257.40
2017-11-15T01:13:40.407Z,149.30
2017-11-15T01:14:40.400Z,103.30
2017-11-15T01:15:40.399Z,191.10
2017-11-15T01:16:40.385Z,314.80
2017-11-15T01:17:40.380Z,239.50
2017-11-15T01:18:40.374Z,210.90
2017-11-15T01:19:40.368Z,208.40
2017-11-15T01:20:40.355Z,223.60
2017-11-15T01:21:40.348Z,134.90
2017-11-15T01:22:40.342Z,134.10
2017-11-15T01:23:40.334Z,123.50
2017-11-15T01:24:40.326Z,172.70
2017-11-15T01:25:40.319Z,214.80
2017-11-15T01:26:40.311Z,221.10
2017-11-15T01:27:40.305Z,189.70
2017-11-15T01:28:40.296Z,196.20
2017-11-15T01:29:40.288Z,225.10
2017-11-15T01:30:40.280Z,217.40
2017-11-15T01:31:40.272Z,297.00
2017-11-15T01:32:40.266Z,221.10
2017-11-15T01:33:40.259Z,238.50
2017-11-15T01:34:40.253Z,219.20
2017-11-15T01:35:40.243Z,135.40
2017-11-15T01:36:40.237Z,139.90
2017-11-15T01:37:40.229Z,174.20
2017-11-15T01:38:40.221Z,177.90
2017-11-15T01:39:40.213Z,187.00
2017-11-15T01:40:40.205Z,59.50
2017-11-15T01:41:40.201Z,121.00
2017-11-15T01:42:40.190Z,99.90
2017-11-15T01:43:40.183Z,86.50
2017-11-15T01:44:40.180Z,214.50
2017-11-15T01:45:40.169Z,235.30
2017-11-15T01:46:40.161Z,146.40
2017-11-15T01:47:40.155Z,180.30
2017-11-15T01:48:40.148Z,246.20
2017-11-15T01:49:40.141Z,280.20
2017-11-15T01:50:40.131Z,222.20
2017-11-15T01:51:40.124Z,215.60
2017-11-15T01:52:40.117Z,259.70
2017-11-15T01:53:40.161Z,257.30
2017-11-15T01:54:40.101Z,168.50
2017-11-15T01:55:40.094Z,96.40
2017-11-15T01:56:40.088Z,27.20
2017-11-15T01:57:40.089Z,40.10
2017-11-15T01:58:40.071Z,69.90
2017-11-15T01:59:40.067Z,67.20
2017-11-15T02:00:40.109Z,79.40
2017-11-15T02:01:40.051Z,37.20
2017-11-15T02:02:40.046Z,47.60
2017-11-15T02:03:40.039Z,24.80
2017-11-15T02:04:40.029Z,17.50
2017-11-15T02:05:40.020Z,23.50
2017-11-15T02:06:40.012Z,41.70
2017-11-15T02:07:40.010Z,24.20
2017-11-15T02:08:39.998Z,52.30
2017-11-15T02:09:39.995Z,124.80
2017-11-15T02:10:39.984Z,209.30
2017-11-15T02:11:39.975Z,187.00
2017-11-15T02:12:39.969Z,64.60
2017-11-15T02:13:39.961Z,57.10
2017-11-15T02:14:39.955Z,78.40
2017-11-15T02:15:39.946Z,77.60
2017-11-15T02:16:39.940Z,40.50
2017-11-15T02:17:39.933Z,36.70
2017-11-15T02:18:39.925Z,35.70
2017-11-15T02:19:39.917Z,28.70
2017-11-15T02:20:39.909Z,33.60
2017-11-15T02:21:39.902Z,33.30
2017-11-15T02:22:39.895Z,17.30
2017-11-15T02:23:39.886Z,28.40
2017-11-15T02:24:39.880Z,37.20
2017-11-15T02:25:39.872Z,23.60
2017-11-15T02:26:39.869Z,39.70
2017-11-15T02:27:39.856Z,36.40
2017-11-15T02:28:39.850Z,41.20
2017-11-15T02:29:39.843Z,17.20
2017-11-15T02:30:39.834Z,18.90
2017-11-15T02:31:39.829Z,27.50
2017-11-15T02:32:39.821Z,21.20
2017-11-15T02:33:39.814Z,22.80
2017-11-15T02:34:39.830Z,25.60
2017-11-15T02:35:39.798Z,18.40
2017-11-15T02:36:39.792Z,25.40
2017-11-15T02:37:39.782Z,27.90
2017-11-15T02:38:39.777Z,29.10
2017-11-15T02:39:39.768Z,19.90
2017-11-15T02:40:39.759Z,23.10
2017-11-15T02:41:39.753Z,20.40
2017-11-15T02:42:39.744Z,22.10
2017-11-15T02:43:39.737Z,19.30
2017-11-15T02:44:39.731Z,29.50
2017-11-15T02:45:39.722Z,43.80
2017-11-15T02:46:39.714Z,35.60
2017-11-15T02:47:39.708Z,33.90
2017-11-15T02:48:39.701Z,26.80
2017-11-15T02:49:39.693Z,71.60
2017-11-15T02:50:39.683Z,37.30
2017-11-15T02:51:39.677Z,44.30
2017-11-15T02:52:39.668Z,104.20
2017-11-15T02:53:39.662Z,86.90
2017-11-15T02:54:39.653Z,59.80
2017-11-15T02:55:39.649Z,71.30
2017-11-15T02:56:39.638Z,40.80
2017-11-15T02:57:39.639Z,33.60
2017-11-15T02:58:39.623Z,92.50
2017-11-15T02:59:39.615Z,43.90
2017-11-15T03:00:39.608Z,55.80
2017-11-15T03:01:39.600Z,53.90
2017-11-15T03:02:39.592Z,46.10
2017-11-15T03:03:39.585Z,65.40
2017-11-15T03:04:39.579Z,31.60
2017-11-15T03:05:39.569Z,28.70
2017-11-15T03:06:39.560Z,30.90
2017-11-15T03:07:39.553Z,22.80
2017-11-15T03:08:39.545Z,31.10
2017-11-15T03:09:39.538Z,23.50
2017-11-15T03:10:39.530Z,37.50
2017-11-15T03:11:39.522Z,52.60
2017-11-15T03:12:39.514Z,59.60
2017-11-15T03:13:39.507Z,23.60
2017-11-15T03:14:39.504Z,32.30
2017-11-15T03:15:39.491Z,24.90
2017-11-15T03:16:39.484Z,20.10
2017-11-15T03:17:39.477Z,21.00
2017-11-15T03:18:39.470Z,32.20
2017-11-15T03:19:39.461Z,24.80
2017-11-15T03:20:39.452Z,16.90
2017-11-15T03:21:39.445Z,13.00
2017-11-15T03:22:39.437Z,13.10
2017-11-15T03:23:39.480Z,14.00
2017-11-15T03:24:39.423Z,13.90
2017-11-15T03:25:39.414Z,12.10
2017-11-15T03:26:39.406Z,12.20
2017-11-15T03:27:39.398Z,13.60
2017-11-15T03:28:39.391Z,11.90
2017-11-15T03:29:39.384Z,12.70
2017-11-15T03:30:39.381Z,11.10
2017-11-15T03:31:39.368Z,12.00
2017-11-15T03:32:39.369Z,12.70
2017-11-15T03:33:39.359Z,12.20
2017-11-15T03:34:39.351Z,11.30
2017-11-15T03:35:39.336Z,12.10
2017-11-15T03:36:39.329Z,11.60
2017-11-15T03:37:39.321Z,12.10
2017-11-15T03:38:39.313Z,11.30
2017-11-15T03:39:39.306Z,10.40
2017-11-15T03:40:39.299Z,10.60
2017-11-15T03:41:39.290Z,10.90
2017-11-15T03:42:39.281Z,11.60
2017-11-15T03:43:39.274Z,11.80
2017-11-15T03:44:39.265Z,11.20
2017-11-15T03:45:39.263Z,11.60
2017-11-15T03:46:39.250Z,12.60
2017-11-15T03:47:39.245Z,13.20
2017-11-15T03:48:39.236Z,15.30
2017-11-15T03:49:39.227Z,11.90
2017-11-15T03:50:39.219Z,11.60
2017-11-15T03:51:39.218Z,17.90
2017-11-15T03:52:39.205Z,12.00
2017-11-15T03:53:39.197Z,11.50
2017-11-15T03:54:39.188Z,11.90
2017-11-15T03:55:39.179Z,11.80
2017-11-15T03:56:39.172Z,10.50
2017-11-15T03:57:39.164Z,11.00
2017-11-15T03:58:39.157Z,11.20
2017-11-15T03:59:39.148Z,11.20
2017-11-15T04:00:39.141Z,10.60
2017-11-15T04:01:39.134Z,9.60
2017-11-15T04:02:39.123Z,9.50
2017-11-15T04:03:39.116Z,10.50
2017-11-15T04:04:39.108Z,9.70
2017-11-15T04:05:39.101Z,10.50
2017-11-15T04:06:39.093Z,10.70
2017-11-15T04:07:39.085Z,9.20
2017-11-15T04:08:39.078Z,9.20
2017-11-15T04:09:39.069Z,10.00
2017-11-15T04:10:39.068Z,10.30
2017-11-15T04:11:39.053Z,12.00
2017-11-15T04:12:39.095Z,12.00
2017-11-15T04:13:39.038Z,11.50
2017-11-15T04:14:39.029Z,27.70
2017-11-15T04:15:39.026Z,24.40
2017-11-15T04:16:39.014Z,25.60
2017-11-15T04:17:39.005Z,30.40
2017-11-15T04:18:38.997Z,49.30
2017-11-15T04:19:38.994Z,65.20
2017-11-15T04:20:38.981Z,79.30
2017-11-15T04:21:38.975Z,81.60
2017-11-15T04:22:38.966Z,108.70
2017-11-15T04:23:38.957Z,96.30
2017-11-15T04:24:38.949Z,63.60
2017-11-15T04:25:38.943Z,59.80
2017-11-15T04:26:38.932Z,42.20
2017-11-15T04:27:38.925Z,70.80
2017-11-15T04:28:38.916Z,91.70
2017-11-15T04:29:38.909Z,101.90
2017-11-15T04:30:38.899Z,89.80
2017-11-15T04:31:38.892Z,119.20
2017-11-15T04:32:38.884Z,95.70
2017-11-15T04:33:38.876Z,156.20
2017-11-15T04:34:38.867Z,147.00
2017-11-15T04:35:38.862Z,74.20
2017-11-15T04:36:38.853Z,116.40
2017-11-15T04:37:38.850Z,73.40
2017-11-15T04:38:38.837Z,95.30
2017-11-15T04:39:38.827Z,70.40
2017-11-15T04:40:38.819Z,44.20
2017-11-15T04:41:38.812Z,38.50
2017-11-15T04:42:38.804Z,44.50
2017-11-15T04:43:38.804Z,32.40
2017-11-15T04:44:38.787Z,22.60
2017-11-15T04:45:38.780Z,12.20
2017-11-15T04:46:38.771Z,15.80
2017-11-15T04:47:38.762Z,12.20
2017-11-15T04:48:38.757Z,11.50
2017-11-15T04:49:38.747Z,11.10
2017-11-15T04:50:38.738Z,12.00
2017-11-15T04:51:38.731Z,10.50
2017-11-15T04:52:38.723Z,11.00
2017-11-15T04:53:38.716Z,10.50
2017-11-15T04:54:38.705Z,10.20
2017-11-15T04:55:38.709Z,12.70
2017-11-15T04:56:38.691Z,10.70
2017-11-15T04:57:38.682Z,12.50
2017-11-15T04:58:38.673Z,11.80
2017-11-15T04:59:38.666Z,11.90
2017-11-15T05:00:38.657Z,11.70
2017-11-15T05:01:38.650Z,12.70
2017-11-15T05:02:38.641Z,12.50
2017-11-15T05:03:38.634Z,12.20
2017-11-15T05:04:38.624Z,23.80
2017-11-15T05:05:38.623Z,73.10
2017-11-15T05:06:38.607Z,45.00
2017-11-15T05:07:38.600Z,130.40
2017-11-15T05:08:38.591Z,125.70
2017-11-15T05:09:38.597Z,88.80
2017-11-15T05:10:38.575Z,126.80
2017-11-15T05:11:38.569Z,69.30
2017-11-15T05:12:38.559Z,55.80
2017-11-15T05:13:38.551Z,143.90
2017-11-15T05:14:38.544Z,90.60
2017-11-15T05:15:38.533Z,80.90
2017-11-15T05:16:38.527Z,57.10
2017-11-15T05:17:38.517Z,86.80
2017-11-15T05:18:38.518Z,57.40
2017-11-15T05:19:38.503Z,110.50
2017-11-15T05:20:38.494Z,48.10
2017-11-15T05:21:38.486Z,75.50
2017-11-15T05:22:38.476Z,40.30
2017-11-15T05:23:38.469Z,93.30
2017-11-15T05:24:38.462Z,49.30
2017-11-15T05:25:38.453Z,80.90
2017-11-15T05:26:38.444Z,68.50
2017-11-15T05:27:38.437Z,42.30
2017-11-15T05:28:38.429Z,40.90
2017-11-15T05:29:38.421Z,80.30
2017-11-15T05:30:38.418Z,120.90
2017-11-15T05:31:38.411Z,108.40
2017-11-15T05:32:38.397Z,116.80
2017-11-15T05:33:38.388Z,70.90
2017-11-15T05:34:38.378Z,87.30
2017-11-15T05:35:38.372Z,56.40
2017-11-15T05:36:38.364Z,96.70
2017-11-15T05:37:38.357Z,91.70
2017-11-15T05:38:38.348Z,90.30
2017-11-15T05:39:38.340Z,127.30
2017-11-15T05:40:38.332Z,141.40
2017-11-15T05:41:38.323Z,113.90
2017-11-15T05:42:38.315Z,189.90
2017-11-15T05:43:38.307Z,165.70
2017-11-15T05:44:38.298Z,107.50
2017-11-15T05:45:38.290Z,77.90
2017-11-15T05:46:38.284Z,48.90
2017-11-15T05:47:38.273Z,40.10
2017-11-15T05:48:38.268Z,37.90
2017-11-15T05:49:38.258Z,87.20
2017-11-15T05:50:38.248Z,57.20
2017-11-15T05:51:38.241Z,61.40
2017-11-15T05:52:38.233Z,38.50
2017-11-15T05:53:38.225Z,54.50
2017-11-15T05:54:38.217Z,56.60
2017-11-15T05:55:38.210Z,46.50
2017-11-15T05:56:38.205Z,30.60
2017-11-15T05:57:38.193Z,22.70
2017-11-15T05:58:38.184Z,17.60
2017-11-15T05:59:38.175Z,14.60
2017-11-15T06:00:38.168Z,13.50
2017-11-15T06:01:38.160Z,17.80
2017-11-15T06:02:38.151Z,16.30
2017-11-15T06:03:38.143Z,20.20
2017-11-15T06:04:38.136Z,13.00
2017-11-15T06:05:38.128Z,13.40
2017-11-15T06:06:38.119Z,13.90
2017-11-15T06:07:38.116Z,13.70
2017-11-15T06:08:38.105Z,14.40
2017-11-15T06:09:38.101Z,15.70
2017-11-15T06:10:38.131Z,17.50
2017-11-15T06:11:38.121Z,13.30
2017-11-15T06:12:38.176Z,13.10
2017-11-15T06:13:38.141Z,12.20
2017-11-15T06:14:38.139Z,15.60
2017-11-15T06:15:38.061Z,17.10
2017-11-15T06:16:38.076Z,46.20
2017-11-15T06:17:38.033Z,50.30
2017-11-15T06:18:38.037Z,52.20
2017-11-15T06:19:38.016Z,65.10
2017-11-15T06:20:38.003Z,63.90
2017-11-15T06:21:38.101Z,61.80
2017-11-15T06:22:38.119Z,24.00
2017-11-15T06:23:38.054Z,28.10
2017-11-15T06:24:38.087Z,45.10
2017-11-15T06:25:38.022Z,44.80
2017-11-15T06:26:38.064Z,23.60
2017-11-15T06:27:38.056Z,32.90
2017-11-15T06:28:37.966Z,74.10
2017-11-15T06:29:37.948Z,29.10
2017-11-15T06:30:37.952Z,35.20
2017-11-15T06:31:38.024Z,22.60
2017-11-15T06:32:38.096Z,28.40
2017-11-15T06:33:37.896Z,20.70
2017-11-15T06:34:37.886Z,28.90
2017-11-15T06:35:37.928Z,34.60
2017-11-15T06:36:37.984Z,35.30
2017-11-15T06:37:37.982Z,26.00
2017-11-15T06:38:37.860Z,22.10
2017-11-15T06:39:37.846Z,19.90
2017-11-15T06:40:37.837Z,21.00
2017-11-15T06:41:37.832Z,21.30
2017-11-15T06:42:37.819Z,17.70
2017-11-15T06:43:37.812Z,17.60
2017-11-15T06:44:37.804Z,28.60
2017-11-15T06:45:37.802Z,39.10
2017-11-15T06:46:37.788Z,29.60
2017-11-15T06:47:37.779Z,59.50
2017-11-15T06:48:37.779Z,41.30
2017-11-15T06:49:37.763Z,123.30
2017-11-15T06:50:37.754Z,73.60
2017-11-15T06:51:37.746Z,170.90
2017-11-15T06:52:37.737Z,175.10
2017-11-15T06:53:37.730Z,140.80
2017-11-15T06:54:37.721Z,124.80
2017-11-15T06:55:37.713Z,52.50
2017-11-15T06:56:37.709Z,46.90
2017-11-15T06:57:37.696Z,104.50
2017-11-15T06:58:37.689Z,97.70
2017-11-15T06:59:37.681Z,111.00
2017-11-15T07:00:37.673Z,52.50
2017-11-15T07:01:37.665Z,68.80
2017-11-15T07:02:37.657Z,56.80
2017-11-15T07:03:37.648Z,59.10
2017-11-15T07:04:37.640Z,57.40
2017-11-15T07:05:37.633Z,102.20
2017-11-15T07:06:37.623Z,135.00
2017-11-15T07:07:37.615Z,171.00
2017-11-15T07:08:37.608Z,144.30
2017-11-15T07:09:37.601Z,87.20
2017-11-15T07:10:37.592Z,76.00
2017-11-15T07:11:37.585Z,49.80
2017-11-15T07:12:37.575Z,80.30
2017-11-15T07:13:37.569Z,106.80
2017-11-15T07:14:37.559Z,57.80
2017-11-15T07:15:37.552Z,106.10
2017-11-15T07:16:37.544Z,94.30
2017-11-15T07:17:37.550Z,52.60
2017-11-15T07:18:37.528Z,88.30
2017-11-15T07:19:37.521Z,81.20
2017-11-15T07:20:37.513Z,87.50
2017-11-15T07:21:37.506Z,61.80
2017-11-15T07:22:37.496Z,56.90
2017-11-15T07:23:37.489Z,119.30
2017-11-15T07:24:37.482Z,100.30
2017-11-15T07:25:37.523Z,96.00
2017-11-15T07:26:37.464Z,76.60
2017-11-15T07:27:37.458Z,41.00
2017-11-15T07:28:37.450Z,74.70
2017-11-15T07:29:37.443Z,29.00
2017-11-15T07:30:37.434Z,74.40
2017-11-15T07:31:37.426Z,90.30
2017-11-15T07:32:37.419Z,72.80
2017-11-15T07:33:37.411Z,95.40
2017-11-15T07:34:37.403Z,121.80
2017-11-15T07:35:37.396Z,103.30
2017-11-15T07:36:37.387Z,111.80
2017-11-15T07:37:37.380Z,94.70
2017-11-15T07:38:37.374Z,67.20
2017-11-15T07:39:37.365Z,88.50
2017-11-15T07:40:37.357Z,68.60
2017-11-15T07:41:37.358Z,48.50
2017-11-15T07:42:37.339Z,37.70
2017-11-15T07:43:37.331Z,40.40
2017-11-15T07:44:37.323Z,32.70
2017-11-15T07:45:37.317Z,31.70
2017-11-15T07:46:37.308Z,27.90
2017-11-15T07:47:37.301Z,32.60
2017-11-15T07:48:37.293Z,21.10
2017-11-15T07:49:37.287Z,17.70
2017-11-15T07:50:37.278Z,12.90
2017-11-15T07:51:37.271Z,19.80
2017-11-15T07:52:37.263Z,23.50
2017-11-15T07:53:37.258Z,28.70
2017-11-15T07:54:37.248Z,52.60
2017-11-15T07:55:37.245Z,22.40
2017-11-15T07:56:37.232Z,20.40
2017-11-15T07:57:37.232Z,24.10
2017-11-15T07:58:37.217Z,28.00
2017-11-15T07:59:37.209Z,18.00
2017-11-15T08:00:37.253Z,31.90
2017-11-15T08:01:37.195Z,61.80
2017-11-15T08:02:37.187Z,42.90
2017-11-15T08:03:37.179Z,55.80
2017-11-15T08:04:37.173Z,62.60
2017-11-15T08:05:37.473Z,42.20
2017-11-15T08:06:37.156Z,57.30
2017-11-15T08:07:37.149Z,38.30
2017-11-15T08:08:37.143Z,22.90
2017-11-15T08:09:37.135Z,46.70
2017-11-15T08:10:37.228Z,35.90
2017-11-15T08:11:37.120Z,43.10
2017-11-15T08:12:37.115Z,48.50
2017-11-15T08:13:37.106Z,42.00
2017-11-15T08:14:37.099Z,45.50
2017-11-15T08:15:37.092Z,32.60
2017-11-15T08:16:37.084Z,23.20
2017-11-15T08:17:37.078Z,39.70
2017-11-15T08:18:37.070Z,39.90
2017-11-15T08:19:37.062Z,35.80
2017-11-15T08:20:37.056Z,32.00
2017-11-15T08:21:37.048Z,30.20
2017-11-15T08:22:37.040Z,35.00
2017-11-15T08:23:37.039Z,19.30
2017-11-15T08:24:37.026Z,17.70
2017-11-15T08:25:37.021Z,25.90
2017-11-15T08:26:37.010Z,33.30
2017-11-15T08:27:37.005Z,18.70
2017-11-15T08:28:36.997Z,19.20
2017-11-15T08:29:36.990Z,18.80
2017-11-15T08:30:36.982Z,20.70
2017-11-15T08:31:36.976Z,80.60
2017-11-15T08:32:36.968Z,35.90
2017-11-15T08:33:36.961Z,21.30
2017-11-15T08:34:36.955Z,18.20
2017-11-15T08:35:36.948Z,25.20
2017-11-15T08:36:36.939Z,22.70
2017-11-15T08:37:36.934Z,15.20
2017-11-15T08:38:36.934Z,19.50
2017-11-15T08:39:36.919Z,21.00
2017-11-15T08:40:36.913Z,17.30
2017-11-15T08:41:36.904Z,18.90
2017-11-15T08:42:36.898Z,16.80
2017-11-15T08:43:36.891Z,15.00
2017-11-15T08:44:36.891Z,13.40
2017-11-15T08:45:36.877Z,17.60
2017-11-15T08:46:36.868Z,12.60
2017-11-15T08:47:36.862Z,13.40
2017-11-15T08:48:36.854Z,12.80
2017-11-15T08:49:36.848Z,12.70
2017-11-15T08:50:36.840Z,13.10
2017-11-15T08:51:36.834Z,10.80
2017-11-15T08:52:36.834Z,12.60
2017-11-15T08:53:36.821Z,11.50
2017-11-15T08:54:36.814Z,12.20
2017-11-15T08:55:36.806Z,11.80
2017-11-15T08:56:36.800Z,10.90
2017-11-15T08:57:36.793Z,10.90
2017-11-15T08:58:36.784Z,11.90
2017-11-15T08:59:36.779Z,10.80
2017-11-15T09:00:36.778Z,11.00
2017-11-15T09:01:36.771Z,10.40
2017-11-15T09:02:36.758Z,11.00
2017-11-15T09:03:36.749Z,11.00
2017-11-15T09:04:36.745Z,10.00
2017-11-15T09:05:36.735Z,11.30
2017-11-15T09:06:36.729Z,11.50
2017-11-15T09:07:36.723Z,10.60
2017-11-15T09:08:36.767Z,12.10
2017-11-15T09:09:36.709Z,13.30
2017-11-15T09:10:36.703Z,12.60
2017-11-15T09:11:36.696Z,10.80
2017-11-15T09:12:36.691Z,12.50
2017-11-15T09:13:36.689Z,20.80
2017-11-15T09:14:36.678Z,13.70
2017-11-15T09:15:36.672Z,17.00
2017-11-15T09:16:36.666Z,12.60
2017-11-15T09:17:36.661Z,11.90
2017-11-15T09:18:36.666Z,10.20
2017-11-15T09:19:36.647Z,11.50
2017-11-15T09:20:36.641Z,11.60
2017-11-15T09:21:36.637Z,12.60
2017-11-15T09:22:36.628Z,11.20
2017-11-15T09:23:36.623Z,10.60
2017-11-15T09:24:36.617Z,10.70
2017-11-15T09:25:36.609Z,11.60
2017-11-15T09:26:36.604Z,10.70
2017-11-15T09:27:36.598Z,10.90
2017-11-15T09:28:36.593Z,10.50
2017-11-15T09:29:36.586Z,11.90
2017-11-15T09:30:36.580Z,11.50
2017-11-15T09:31:36.574Z,12.60
2017-11-15T09:32:36.569Z,13.60
2017-11-15T09:33:36.563Z,15.00
2017-11-15T09:34:36.556Z,15.40
2017-11-15T09:35:36.550Z,11.40
2017-11-15T09:36:36.545Z,11.00
2017-11-15T09:37:36.539Z,11.60
2017-11-15T09:38:36.583Z,12.80
2017-11-15T09:39:36.526Z,19.90
2017-11-15T09:40:36.521Z,12.70
2017-11-15T09:41:36.515Z,11.60
2017-11-15T09:42:36.509Z,11.30
2017-11-15T09:43:36.504Z,11.60
2017-11-15T09:44:36.501Z,12.20
2017-11-15T09:45:36.492Z,11.30
2017-11-15T09:46:36.485Z,15.00
2017-11-15T09:47:36.487Z,13.60
2017-11-15T09:48:36.475Z,11.20
2017-11-15T09:49:36.467Z,12.00
2017-11-15T09:50:36.461Z,10.90
2017-11-15T09:51:36.457Z,10.80
2017-11-15T09:52:36.450Z,10.40
2017-11-15T09:53:36.444Z,10.20
2017-11-15T09:54:36.438Z,12.30
2017-11-15T09:55:36.433Z,11.30
2017-11-15T09:56:36.429Z,11.20
2017-11-15T09:57:36.423Z,10.30
2017-11-15T09:58:36.415Z,11.10
2017-11-15T09:59:36.409Z,11.70
2017-11-15T10:00:36.403Z,12.90
2017-11-15T10:01:36.398Z,11.70
2017-11-15T10:02:36.392Z,11.50
2017-11-15T10:03:36.387Z,10.90
2017-11-15T10:04:36.380Z,10.80
2017-11-15T10:05:36.375Z,11.10
2017-11-15T10:06:36.368Z,11.90
2017-11-15T10:07:36.363Z,11.10
2017-11-15T10:08:36.354Z,11.20
2017-11-15T10:09:36.350Z,11.80
2017-11-15T10:10:36.343Z,12.10
2017-11-15T10:11:36.337Z,12.70
2017-11-15T10:12:36.331Z,11.80
2017-11-15T10:13:36.326Z,11.70
2017-11-15T10:14:36.318Z,10.80
2017-11-15T10:15:36.313Z,11.00
2017-11-15T10:16:36.306Z,12.40
2017-11-15T10:17:36.303Z,35.00
2017-11-15T10:18:36.293Z,19.20
2017-11-15T10:19:36.287Z,14.20
2017-11-15T10:20:36.281Z,18.70
2017-11-15T10:21:36.275Z,12.10
2017-11-15T10:22:36.268Z,11.40
2017-11-15T10:23:36.263Z,12.30
2017-11-15T10:24:36.306Z,11.60
2017-11-15T10:25:36.250Z,11.50
2017-11-15T10:26:36.243Z,11.50
2017-11-15T10:27:36.236Z,11.20
2017-11-15T10:28:36.231Z,13.00
2017-11-15T10:29:36.224Z,13.00
2017-11-15T10:30:36.216Z,13.20
2017-11-15T10:31:36.209Z,12.80
2017-11-15T10:32:36.203Z,11.40
2017-11-15T10:33:36.200Z,12.20
2017-11-15T10:34:36.189Z,10.30
2017-11-15T10:35:36.184Z,12.30
2017-11-15T10:36:36.186Z,14.50
2017-11-15T10:37:36.172Z,10.80
2017-11-15T10:38:36.165Z,11.70
2017-11-15T10:39:36.158Z,12.00
2017-11-15T10:40:36.152Z,14.70
2017-11-15T10:41:36.146Z,12.50
2017-11-15T10:42:36.137Z,10.90
2017-11-15T10:43:36.133Z,11.60
2017-11-15T10:44:36.127Z,11.90
2017-11-15T10:45:36.120Z,12.00
2017-11-15T10:46:36.114Z,12.90
2017-11-15T10:47:36.108Z,11.90
2017-11-15T10:48:36.103Z,12.50
2017-11-15T10:49:36.095Z,12.30
2017-11-15T10:50:36.092Z,12.50
2017-11-15T10:51:36.084Z,12.00
2017-11-15T10:52:36.079Z,16.20
2017-11-15T10:53:36.072Z,19.80
2017-11-15T10:54:36.065Z,16.10
2017-11-15T10:55:36.061Z,15.30
2017-11-15T10:56:36.055Z,11.60
2017-11-15T10:57:36.050Z,11.30
2017-11-15T10:58:36.046Z,10.90
2017-11-15T10:59:36.037Z,11.90
2017-11-15T11:00:36.032Z,10.40
2017-11-15T11:01:36.027Z,10.20
2017-11-15T11:02:36.019Z,11.00
2017-11-15T11:03:36.014Z,10.30
2017-11-15T11:04:36.009Z,12.10
2017-11-15T11:05:36.003Z,12.50
2017-11-15T11:06:36.048Z,12.50
2017-11-15T11:07:35.992Z,21.10
2017-11-15T11:08:35.986Z,17.60
2017-11-15T11:09:35.981Z,15.10
2017-11-15T11:10:35.975Z,11.60
2017-11-15T11:11:35.978Z,11.40
2017-11-15T11:12:35.965Z,13.40
2017-11-15T11:13:35.991Z,11.80
2017-11-15T11:14:35.954Z,11.50
2017-11-15T11:15:35.952Z,11.20
2017-11-15T11:16:35.944Z,11.40
2017-11-15T11:17:35.939Z,11.50
2017-11-15T11:18:35.933Z,12.10
2017-11-15T11:19:35.929Z,12.40
2017-11-15T11:20:35.923Z,12.00
2017-11-15T11:21:35.918Z,12.20
2017-11-15T11:22:35.912Z,12.20
2017-11-15T11:23:35.908Z,11.90
2017-11-15T11:24:35.904Z,12.50
2017-11-15T11:25:35.899Z,12.50
2017-11-15T11:26:35.894Z,11.20
2017-11-15T11:27:35.888Z,11.40
2017-11-15T11:28:35.884Z,11.70
2017-11-15T11:29:35.928Z,10.30
2017-11-15T11:30:35.872Z,11.10
2017-11-15T11:31:35.867Z,11.40
2017-11-15T11:32:35.862Z,10.30
2017-11-15T11:33:35.858Z,10.10
2017-11-15T11:34:35.852Z,12.90
2017-11-15T11:35:35.847Z,10.20
2017-11-15T11:36:35.843Z,11.60
2017-11-15T11:37:35.838Z,11.20
2017-11-15T11:38:35.832Z,10.20
2017-11-15T11:39:35.826Z,10.50
2017-11-15T11:40:35.821Z,11.50
2017-11-15T11:41:35.815Z,11.20
2017-11-15T11:42:35.810Z,11.40
2017-11-15T11:43:35.803Z,10.60
2017-11-15T11:44:35.798Z,10.50
2017-11-15T11:45:35.793Z,10.30
2017-11-15T11:46:35.837Z,10.30
2017-11-15T11:47:35.782Z,9.70
2017-11-15T11:48:35.777Z,11.00
2017-11-15T11:49:35.773Z,9.90
2017-11-15T11:50:35.766Z,9.90
2017-11-15T11:51:35.760Z,10.60
2017-11-15T11:52:35.755Z,10.70
2017-11-15T11:53:35.751Z,10.60
2017-11-15T11:54:35.743Z,10.10
2017-11-15T11:55:35.738Z,9.60
2017-11-15T11:56:35.733Z,10.40
2017-11-15T11:57:35.727Z,10.70
2017-11-15T11:58:35.723Z,11.70
2017-11-15T11:59:35.716Z,11.10
2017-11-15T12:00:35.712Z,14.20
2017-11-15T12:01:35.706Z,19.40
2017-11-15T12:02:35.726Z,20.80
2017-11-15T12:03:35.693Z,15.80
2017-11-15T12:04:35.688Z,13.00
2017-11-15T12:05:35.683Z,12.50
2017-11-15T12:06:35.677Z,12.20
2017-11-15T12:07:35.671Z,11.30
2017-11-15T12:08:35.666Z,10.80
2017-11-15T12:09:35.660Z,9.40
2017-11-15T12:10:35.654Z,10.00
2017-11-15T12:11:35.650Z,9.90
2017-11-15T12:12:35.649Z,9.30
2017-11-15T12:13:35.639Z,9.90
2017-11-15T12:14:35.631Z,9.70
2017-11-15T12:15:35.627Z,9.40
2017-11-15T12:16:35.628Z,12.60
2017-11-15T12:17:35.625Z,9.10
2017-11-15T12:18:35.610Z,9.20
2017-11-15T12:19:35.607Z,9.30
2017-11-15T12:20:35.601Z,10.00
2017-11-15T12:21:35.598Z,9.70
2017-11-15T12:22:35.591Z,8.70
2017-11-15T12:23:35.590Z,9.80
2017-11-15T12:24:35.582Z,10.30
2017-11-15T12:25:35.579Z,9.70
2017-11-15T12:26:35.573Z,11.40
2017-11-15T12:27:35.572Z,10.10
2017-11-15T12:28:35.564Z,9.90
2017-11-15T12:29:35.558Z,15.70
2017-11-15T12:30:35.553Z,10.30
2017-11-15T12:31:35.548Z,9.90
2017-11-15T12:32:35.544Z,8.20
2017-11-15T12:33:35.540Z,9.60
2017-11-15T12:34:35.536Z,8.80
2017-11-15T12:35:35.532Z,8.90
2017-11-15T12:36:35.528Z,9.30
2017-11-15T12:37:35.524Z,9.80
2017-11-15T12:38:35.520Z,9.10
2017-11-15T12:39:35.517Z,10.80
2017-11-15T12:40:35.513Z,9.60
2017-11-15T12:41:35.509Z,9.50
2017-11-15T12:42:35.506Z,9.20
2017-11-15T12:43:35.503Z,8.50
2017-11-15T12:44:35.500Z,9.60
2017-11-15T12:45:35.497Z,9.00
2017-11-15T12:46:35.494Z,9.00
2017-11-15T12:47:35.491Z,8.40
2017-11-15T12:48:35.539Z,8.70
2017-11-15T12:49:35.487Z,9.60
2017-11-15T12:50:35.483Z,9.30